Time;durP1;ratioP1;P1;durP2;ratioP2;P2;SDS_P1;SDS_P2;PMS_P1;PMS_P2;Temp;Humidity;BMP_temperature;BMP_pressure;BME280_temperature;BME280_humidity;BME280_pressure;Samples;Min_cycle;Max_cycle;Signal;HPM_P1;HPM_P2
2021/07/19 00:01:35;;;;;;;13.55;10.73;;;;;;;19.79;64.24;100459.04;128125;1098;22416;-76
2021/07/19 00:04:05;;;;;;;16.18;11.80;;;;;;;19.75;64.40;100459.48;128260;1097;22376;-76
2021/07/19 00:06:35;;;;;;;20.60;13.05;;;;;;;19.72;64.64;100457.25;128154;1098;22379;-76
2021/07/19 00:09:04;;;;;;;19.93;13.43;;;;;;;19.70;64.70;100456.68;128143;1097;22376;-75
2021/07/19 00:11:38;;;;;;;23.30;14.25;;;;;;;19.67;64.63;100462.48;128148;1097;24320;-75
2021/07/19 00:14:08;;;;;;;25.68;16.00;;;;;;;19.64;64.90;100468.30;128190;1098;22373;-75
2021/07/19 00:16:38;;;;;;;28.68;15.45;;;;;;;19.62;64.65;100462.30;128092;1098;22376;-75
2021/07/19 00:19:07;;;;;;;28.20;16.00;;;;;;;19.59;64.70;100473.47;128116;1098;22405;-76
2021/07/19 00:21:37;;;;;;;26.73;15.95;;;;;;;19.57;64.88;100464.03;128162;1097;22394;-76
2021/07/19 00:24:07;;;;;;;27.33;16.98;;;;;;;19.53;65.21;100466.34;128137;1098;22395;-75
2021/07/19 00:26:36;;;;;;;29.15;15.75;;;;;;;19.48;65.32;100461.64;128133;1098;22481;-75
2021/07/19 00:29:06;;;;;;;25.10;15.73;;;;;;;19.44;65.50;100470.36;128111;1098;22399;-76
2021/07/19 00:31:36;;;;;;;26.60;16.05;;;;;;;19.39;65.12;100473.72;128176;1098;22375;-77
2021/07/19 00:34:06;;;;;;;25.83;14.65;;;;;;;19.35;65.28;100477.86;128197;1097;22379;-76
2021/07/19 00:36:35;;;;;;;21.83;14.63;;;;;;;19.31;66.01;100468.63;128156;1098;22379;-76
2021/07/19 00:39:10;;;;;;;21.73;13.93;;;;;;;19.27;66.27;100464.77;128154;1097;22394;-75
2021/07/19 00:41:40;;;;;;;17.73;12.90;;;;;;;19.22;66.48;100467.28;128221;1098;22420;-76
2021/07/19 00:44:11;;;;;;;15.53;10.73;;;;;;;19.19;66.97;100473.08;128239;1098;22414;-76
2021/07/19 00:46:40;;;;;;;18.48;11.23;;;;;;;19.14;67.17;100470.27;128188;1098;23322;-76
2021/07/19 00:49:11;;;;;;;16.70;12.10;;;;;;;19.11;67.00;100468.84;128215;1098;22382;-76
2021/07/19 00:51:42;;;;;;;16.73;11.67;;;;;;;19.05;67.36;100462.50;128116;1098;22431;-76
2021/07/19 00:54:21;;;;;;;21.45;12.35;;;;;;;19.01;67.22;100463.98;128184;1098;23020;-76
2021/07/19 00:56:57;;;;;;;13.88;11.18;;;;;;;18.98;67.36;100455.58;128144;1098;22395;-76
2021/07/19 00:59:33;;;;;;;20.40;12.18;;;;;;;18.93;67.61;100452.76;128185;1097;22377;-75
2021/07/19 01:02:04;;;;;;;16.25;11.35;;;;;;;18.88;67.86;100458.75;128173;1098;22478;-76
2021/07/19 01:04:34;;;;;;;20.87;13.90;;;;;;;18.83;67.92;100452.41;128138;1098;22391;-76
2021/07/19 01:07:05;;;;;;;15.95;12.55;;;;;;;18.77;68.07;100457.62;128141;1098;24518;-75
2021/07/19 01:09:36;;;;;;;17.78;11.48;;;;;;;18.74;68.20;100462.59;128206;1098;22379;-77
2021/07/19 01:12:07;;;;;;;21.30;13.80;;;;;;;18.69;68.45;100457.84;128153;1097;22372;-76
2021/07/19 01:14:42;;;;;;;20.95;13.20;;;;;;;18.66;68.44;100462.81;128118;1098;22364;-77
2021/07/19 01:17:13;;;;;;;15.43;12.28;;;;;;;18.61;68.64;100470.69;128161;1098;24256;-77
2021/07/19 01:19:50;;;;;;;20.55;12.55;;;;;;;18.56;68.62;100474.03;128176;1098;22372;-75
2021/07/19 01:22:50;;;;;;;14.93;12.58;;;;;;;18.52;68.98;100464.78;128196;1098;22402;-76
2021/07/19 01:25:35;;;;;;;;;;;;;;;18.40;68.95;100467.34;128195;1097;22376;-75
2021/07/19 01:28:36;;;;;;;14.95;11.35;;;;;;;18.34;69.40;100473.55;128129;1098;21263;-75
2021/07/19 01:31:13;;;;;;;14.93;12.00;;;;;;;18.31;69.54;100461.42;128183;1097;22403;-77
2021/07/19 01:33:49;;;;;;;13.60;10.53;;;;;;;18.29;69.50;100463.52;128173;1098;22379;-76
2021/07/19 01:36:25;;;;;;;16.13;11.25;;;;;;;18.31;69.84;100465.95;128287;1098;22391;-76
2021/07/19 01:39:24;;;;;;;10.98;9.88;;;;;;;18.31;69.92;100466.77;128133;1098;24518;-74
2021/07/19 01:41:56;;;;;;;14.30;10.33;;;;;;;18.33;69.94;100472.73;128018;1098;22379;-76
2021/07/19 01:44:28;;;;;;;11.10;9.98;;;;;;;18.33;69.81;100483.44;128028;1098;22399;-76
2021/07/19 01:47:00;;;;;;;13.40;10.75;;;;;;;18.31;69.57;100482.81;128181;1097;22395;-76
2021/07/19 01:49:31;;;;;;;10.60;9.50;;;;;;;18.31;69.93;100495.38;128174;1098;22379;-77
2021/07/19 01:52:02;;;;;;;10.73;9.63;;;;;;;18.30;69.50;100491.88;128008;1098;22399;-77
2021/07/19 01:54:33;;;;;;;16.45;9.95;;;;;;;18.28;69.97;100493.13;128226;1098;22395;-76
2021/07/19 01:57:05;;;;;;;11.95;10.20;;;;;;;18.25;69.78;100494.37;128141;1098;22372;-75
2021/07/19 01:59:43;;;;;;;12.90;10.43;;;;;;;18.23;70.10;100491.11;128175;1098;22366;-76
2021/07/19 02:02:33;;;;;;;12.25;10.20;;;;;;;18.19;70.55;100492.55;128172;1097;22391;-77
2021/07/19 02:05:12;;;;;;;11.68;10.35;;;;;;;18.16;69.94;100495.67;128199;1098;24502;-77
2021/07/19 02:07:52;;;;;;;13.63;10.70;;;;;;;18.13;70.28;100489.91;128012;1098;22395;-75
2021/07/19 02:10:23;;;;;;;12.28;10.55;;;;;;;18.10;70.47;100491.18;128217;1097;22393;-76
2021/07/19 02:13:10;;;;;;;13.25;10.80;;;;;;;18.07;70.46;100492.42;128180;1098;22399;-76
2021/07/19 02:15:44;;;;;;;15.47;10.57;;;;;;;18.04;70.13;100498.19;127982;1098;22367;-75
2021/07/19 02:18:18;;;;;;;10.83;9.73;;;;;;;18.00;70.57;100491.64;128225;1098;22379;-75
2021/07/19 02:20:47;;;;;;;11.08;9.93;;;;;;;17.97;70.49;100497.41;128224;1098;22402;-75
2021/07/19 02:23:22;;;;;;;13.53;9.70;;;;;;;17.95;70.56;100502.13;128172;1097;22383;-75
2021/07/19 02:25:59;;;;;;;12.97;9.20;;;;;;;17.92;70.97;100504.41;128184;1098;22394;-75
2021/07/19 02:28:32;;;;;;;13.83;10.48;;;;;;;17.88;70.95;100502.16;128187;1097;22375;-75
2021/07/19 02:31:06;;;;;;;15.60;10.73;;;;;;;17.87;71.03;100507.73;128155;1097;22376;-76
2021/07/19 02:33:38;;;;;;;15.35;11.45;;;;;;;17.84;70.94;100502.80;128214;1097;22830;-75
2021/07/19 02:36:10;;;;;;;15.15;10.45;;;;;;;17.81;71.19;100501.38;128214;1098;24531;-76
2021/07/19 02:38:44;;;;;;;11.53;9.88;;;;;;;17.81;71.53;100509.39;128148;1098;22449;-76
2021/07/19 02:41:24;;;;;;;11.58;10.28;;;;;;;17.79;71.40;100511.47;128166;1098;24527;-75
2021/07/19 02:43:58;;;;;;;10.48;9.25;;;;;;;17.78;71.66;100509.81;128184;1098;22375;-75
2021/07/19 02:46:37;;;;;;;12.35;10.53;;;;;;;17.79;71.45;100513.30;128159;1098;22379;-76
2021/07/19 02:49:09;;;;;;;10.95;9.80;;;;;;;17.78;71.68;100509.81;128224;1098;23297;-75
2021/07/19 02:51:39;;;;;;;12.88;11.58;;;;;;;17.78;72.06;100514.34;128167;1098;24192;-75
2021/07/19 02:54:19;;;;;;;12.63;9.58;;;;;;;17.77;71.97;100516.19;128160;1098;22381;-75
2021/07/19 02:56:50;;;;;;;14.50;10.50;;;;;;;17.76;71.85;100503.88;128197;1097;22399;-76
2021/07/19 02:59:21;;;;;;;12.58;10.95;;;;;;;17.76;72.03;100511.01;128190;1098;22372;-76
2021/07/19 03:01:55;;;;;;;10.50;9.48;;;;;;;17.73;72.18;100504.27;128190;1098;24252;-75
2021/07/19 03:04:27;;;;;;;14.68;10.43;;;;;;;17.72;72.38;100505.27;128265;1098;22379;-76
2021/07/19 03:07:00;;;;;;;;;;;;;;;17.68;72.13;100505.91;128191;1098;22398;-76
2021/07/19 03:09:34;;;;;;;13.40;10.95;;;;;;;17.63;72.37;100503.89;128190;1098;21260;-74
2021/07/19 03:12:07;;;;;;;16.55;14.35;;;;;;;17.66;72.39;100503.47;128189;1098;22692;-75
2021/07/19 03:14:38;;;;;;;14.45;11.65;;;;;;;17.67;72.47;100505.09;128258;1098;24518;-76
2021/07/19 03:17:07;;;;;;;13.35;10.58;;;;;;;17.72;72.26;100504.45;128144;1098;22418;-75
2021/07/19 03:19:39;;;;;;;15.75;11.35;;;;;;;17.72;72.67;100502.60;128179;1098;22345;-75
2021/07/19 03:22:11;;;;;;;;;;;;;;;17.70;72.64;100506.53;128302;1097;22394;-75
2021/07/19 03:24:58;;;;;;;17.38;11.20;;;;;;;17.66;72.67;100508.81;128178;1098;22991;-76
2021/07/19 03:27:29;;;;;;;13.83;10.75;;;;;;;17.70;72.67;100504.68;128190;1098;22394;-75
2021/07/19 03:30:00;;;;;;;16.48;11.28;;;;;;;17.72;72.60;100518.63;128145;1096;22399;-76
2021/07/19 03:32:41;;;;;;;15.05;11.48;;;;;;;17.76;72.55;100508.34;128209;1098;22392;-77
2021/07/19 03:35:22;;;;;;;14.43;10.40;;;;;;;17.78;72.97;100512.48;128169;1098;22394;-76
2021/07/19 03:37:54;;;;;;;14.88;10.85;;;;;;;17.81;72.41;100512.06;127976;1098;22380;-75
2021/07/19 03:40:25;;;;;;;12.35;11.00;;;;;;;17.85;72.72;100517.80;128240;1098;22391;-77
2021/07/19 03:43:01;;;;;;;13.80;10.75;;;;;;;17.88;72.78;100514.70;128205;1098;22415;-75
2021/07/19 03:45:31;;;;;;;20.80;11.75;;;;;;;17.93;72.53;100528.27;128134;1098;22395;-76
2021/07/19 03:48:03;;;;;;;19.55;11.68;;;;;;;17.99;72.76;100515.89;128157;1098;22266;-75
2021/07/19 03:50:39;;;;;;;16.43;11.85;;;;;;;18.05;72.89;100509.70;128217;1097;22395;-76
2021/07/19 03:53:09;;;;;;;14.25;11.38;;;;;;;18.11;72.36;100514.20;128118;1097;22395;-76
2021/07/19 03:55:43;;;;;;;16.70;12.27;;;;;;;18.15;72.27;100509.24;128144;1098;22386;-76
2021/07/19 03:58:15;;;;;;;13.63;12.13;;;;;;;18.21;72.27;100516.41;128174;1098;22404;-76
2021/07/19 04:00:46;;;;;;;13.40;12.00;;;;;;;18.26;71.90;100504.05;128014;1098;22376;-75
2021/07/19 04:03:26;;;;;;;19.95;11.75;;;;;;;18.31;71.80;100506.89;128190;1098;22382;-76
2021/07/19 04:06:00;;;;;;;21.60;12.20;;;;;;;18.37;71.71;100507.08;128250;1098;22425;-75
2021/07/19 04:08:47;;;;;;;13.25;11.98;;;;;;;18.40;72.03;100498.63;128131;1098;22376;-75
2021/07/19 04:11:20;;;;;;;15.33;12.48;;;;;;;18.44;71.43;100508.66;128025;1098;22376;-77
2021/07/19 04:13:55;;;;;;;14.20;12.33;;;;;;;18.47;71.11;100502.07;127912;1098;22933;-76
2021/07/19 04:16:27;;;;;;;17.60;12.18;;;;;;;18.49;70.79;100500.83;127940;1098;22376;-76
2021/07/19 04:18:57;;;;;;;18.13;13.25;;;;;;;18.54;70.84;100498.30;127961;1097;22376;-77
2021/07/19 04:21:27;;;;;;;17.50;13.73;;;;;;;18.62;70.65;100496.40;127934;1098;22373;-76
2021/07/19 04:23:58;;;;;;;19.45;13.90;;;;;;;18.68;70.77;100491.00;127958;1097;22392;-76
2021/07/19 04:26:33;;;;;;;16.50;12.93;;;;;;;18.75;70.86;100491.80;127917;1098;22824;-77
2021/07/19 04:29:06;;;;;;;19.20;12.88;;;;;;;18.85;70.34;100488.63;127789;1098;22398;-77
2021/07/19 04:31:44;;;;;;;15.00;12.25;;;;;;;18.91;70.18;100484.27;127924;1098;22375;-77
2021/07/19 04:34:33;;;;;;;16.15;13.48;;;;;;;18.97;70.04;100486.07;127932;1098;22363;-79
2021/07/19 04:37:10;;;;;;;15.93;12.78;;;;;;;19.03;69.65;100479.84;127949;1098;22234;-75
2021/07/19 04:39:45;;;;;;;14.13;12.70;;;;;;;19.11;69.43;100478.73;127933;1098;22476;-75
2021/07/19 04:42:20;;;;;;;19.65;14.23;;;;;;;19.20;69.32;100480.09;128062;1098;22379;-75
2021/07/19 04:44:50;;;;;;;14.83;13.15;;;;;;;19.30;68.89;100479.59;127985;1098;24585;-75
2021/07/19 04:47:19;;;;;;;19.90;13.33;;;;;;;19.38;68.70;100482.77;127822;1098;22404;-75
2021/07/19 04:49:49;;;;;;;14.78;13.05;;;;;;;19.50;68.45;100483.68;127994;1098;22375;-76
2021/07/19 04:52:18;;;;;;;20.55;13.20;;;;;;;19.60;68.27;100480.48;127964;1097;22379;-76
2021/07/19 04:54:51;;;;;;;18.53;13.53;;;;;;;19.72;68.51;100483.25;127932;1098;22385;-75
2021/07/19 04:57:23;;;;;;;18.43;13.58;;;;;;;19.86;68.23;100483.89;127835;1098;22397;-76
2021/07/19 04:59:54;;;;;;;15.53;13.53;;;;;;;19.97;67.93;100496.55;127971;1097;22379;-77
2021/07/19 05:02:27;;;;;;;;;;;;;;;20.09;67.82;100494.76;127982;1097;24541;-76
2021/07/19 05:05:00;;;;;;;16.03;13.15;;;;;;;20.20;67.61;100493.16;127981;1098;23132;-76
2021/07/19 05:07:32;;;;;;;15.05;12.30;;;;;;;20.37;67.01;100496.83;127929;1098;22375;-76
2021/07/19 05:10:06;;;;;;;14.73;11.70;;;;;;;20.53;66.67;100506.13;127849;1098;22385;-79
2021/07/19 05:12:37;;;;;;;16.00;12.10;;;;;;;20.66;66.23;100494.38;128010;1097;22385;-76
2021/07/19 05:15:13;;;;;;;16.07;12.63;;;;;;;20.80;65.78;100497.66;127826;1098;22825;-76
2021/07/19 05:17:43;;;;;;;14.10;11.53;;;;;;;20.99;65.39;100501.86;127931;1098;23361;-75
2021/07/19 05:20:16;;;;;;;14.00;10.90;;;;;;;21.12;64.88;100498.13;127984;1096;24244;-76
2021/07/19 05:22:54;;;;;;;15.65;10.78;;;;;;;21.33;64.66;100510.17;127974;1098;24524;-77
2021/07/19 05:25:30;;;;;;;15.70;12.05;;;;;;;21.55;63.86;100510.40;127996;1098;22391;-77
2021/07/19 05:28:12;;;;;;;13.28;11.83;;;;;;;21.60;63.03;100511.33;127889;1098;22410;-76
2021/07/19 05:30:53;;;;;;;13.73;11.00;;;;;;;21.64;63.08;100503.61;127786;1101;23354;-77
2021/07/19 05:33:25;;;;;;;12.48;11.18;;;;;;;21.74;62.95;100500.31;127772;1101;24259;-76
2021/07/19 05:35:54;;;;;;;14.53;10.60;;;;;;;21.80;62.59;100493.98;127809;1101;22382;-75
2021/07/19 05:38:24;;;;;;;13.05;9.58;;;;;;;21.94;62.54;100500.72;127755;1101;22428;-75
2021/07/19 05:40:53;;;;;;;12.55;9.90;;;;;;;22.02;62.02;100500.33;127763;1101;22427;-76
2021/07/19 05:43:23;;;;;;;10.88;9.78;;;;;;;22.17;61.93;100504.41;127823;1101;22383;-75
2021/07/19 05:45:53;;;;;;;10.20;8.65;;;;;;;22.35;61.72;100508.77;127778;1101;22400;-77
2021/07/19 05:48:22;;;;;;;12.70;8.40;;;;;;;22.63;61.30;100506.05;127802;1098;22397;-75
2021/07/19 05:50:52;;;;;;;15.03;8.53;;;;;;;22.92;60.14;100512.16;127960;1098;22393;-76
2021/07/19 05:53:21;;;;;;;10.60;8.45;;;;;;;23.17;59.32;100511.77;127861;1098;24541;-75
2021/07/19 05:55:52;;;;;;;11.65;8.45;;;;;;;23.46;58.57;100508.95;127928;1098;22423;-76
2021/07/19 05:58:21;;;;;;;12.53;8.45;;;;;;;23.70;57.93;100502.27;128015;1098;24531;-77
2021/07/19 06:00:51;;;;;;;15.67;7.93;;;;;;;24.05;57.05;100514.53;127987;1098;22404;-83
2021/07/19 06:03:22;;;;;;;12.75;9.25;;;;;;;24.27;56.04;100519.91;127903;1098;22394;-76
2021/07/19 06:05:52;;;;;;;11.43;8.00;;;;;;;24.32;54.91;100525.34;127872;1098;24216;-79
2021/07/19 06:08:22;;;;;;;8.68;7.40;;;;;;;24.34;55.12;100525.11;127989;1098;25780;-79
2021/07/19 06:10:51;;;;;;;11.30;7.17;;;;;;;24.41;54.60;100529.25;127814;1098;22404;-77
2021/07/19 06:13:21;;;;;;;13.20;8.38;;;;;;;24.38;53.91;100524.33;127839;1098;24282;-79
2021/07/19 06:15:51;;;;;;;11.80;9.37;;;;;;;24.28;53.91;100528.81;127940;1096;22404;-79
2021/07/19 06:18:21;;;;;;;12.08;9.58;;;;;;;24.13;53.52;100526.78;127807;1098;22400;-78
2021/07/19 06:20:50;;;;;;;16.00;8.98;;;;;;;23.95;54.06;100533.31;127852;1098;22388;-79
2021/07/19 06:23:20;;;;;;;11.53;9.78;;;;;;;23.78;54.48;100529.86;127811;1097;22395;-79
2021/07/19 06:25:51;;;;;;;13.73;10.63;;;;;;;23.57;54.66;100539.55;127818;1098;22376;-79
2021/07/19 06:28:22;;;;;;;11.78;10.40;;;;;;;23.33;55.12;100534.38;128015;1098;22394;-80
2021/07/19 06:30:53;;;;;;;11.55;10.40;;;;;;;23.15;55.89;100537.33;127942;1096;22385;-79
2021/07/19 06:33:23;;;;;;;11.25;10.15;;;;;;;23.01;56.34;100542.23;127859;1098;25030;-79
2021/07/19 06:35:53;;;;;;;21.98;10.68;;;;;;;22.94;56.42;100537.01;127949;1098;22396;-79
2021/07/19 06:38:22;;;;;;;13.10;11.73;;;;;;;22.91;57.04;100545.55;127933;1098;22375;-78
2021/07/19 06:40:52;;;;;;;12.93;11.15;;;;;;;22.96;57.14;100542.17;127922;1096;22374;-79
2021/07/19 06:43:21;;;;;;;14.28;11.53;;;;;;;23.01;57.41;100531.45;127962;1098;22380;-80
2021/07/19 06:45:51;;;;;;;16.13;10.35;;;;;;;23.06;57.00;100533.41;127935;1097;22478;-79
2021/07/19 06:48:21;;;;;;;15.15;11.10;;;;;;;23.21;57.65;100533.65;127788;1098;22400;-78
2021/07/19 06:50:50;;;;;;;12.68;10.65;;;;;;;23.51;57.44;100532.45;127911;1098;22392;-77
2021/07/19 06:53:20;;;;;;;19.30;16.93;;;;;;;23.89;57.42;100527.05;128009;1098;24247;-78
2021/07/19 06:55:49;;;;;;;13.03;11.20;;;;;;;24.41;56.35;100529.25;128022;1098;22369;-78
2021/07/19 06:58:19;;;;;;;15.55;12.08;;;;;;;24.80;54.89;100534.47;127950;1098;22378;-79
2021/07/19 07:00:50;;;;;;;9.68;7.35;;;;;;;25.11;53.19;100532.84;127977;1098;25097;-78
2021/07/19 07:03:20;;;;;;;9.78;7.03;;;;;;;25.42;51.50;100533.02;127993;1098;22402;-79
2021/07/19 07:05:50;;;;;;;13.38;7.30;;;;;;;25.73;51.50;100528.59;127827;1098;24342;-79
2021/07/19 07:08:20;;;;;;;18.70;7.78;;;;;;;26.13;50.61;100540.69;127972;1098;22380;-79
2021/07/19 07:10:52;;;;;;;7.93;6.53;;;;;;;26.35;49.07;100536.93;127928;1097;22399;-80
2021/07/19 07:13:21;;;;;;;12.83;7.58;;;;;;;26.47;48.91;100542.91;127956;1098;22382;-78
2021/07/19 07:15:51;;;;;;;10.55;7.58;;;;;;;26.61;48.32;100544.04;128015;1098;22379;-78
2021/07/19 07:18:20;;;;;;;11.35;7.85;;;;;;;26.58;48.15;100536.45;127950;1098;22401;-79
2021/07/19 07:20:50;;;;;;;17.73;7.93;;;;;;;26.51;47.72;100544.03;127808;1098;22383;-78
2021/07/19 07:23:19;;;;;;;8.40;6.80;;;;;;;26.33;47.71;100548.05;127859;1098;22398;-79
2021/07/19 07:25:49;;;;;;;8.75;7.15;;;;;;;26.14;47.95;100542.30;127974;1098;23151;-80
2021/07/19 07:28:18;;;;;;;13.25;7.10;;;;;;;25.94;48.10;100534.93;128017;1097;22375;-78
2021/07/19 07:30:48;;;;;;;14.18;7.53;;;;;;;25.80;48.43;100540.02;127932;1098;22385;-77
2021/07/19 07:33:17;;;;;;;14.03;10.53;;;;;;;25.66;48.28;100538.85;127834;1098;22375;-78
2021/07/19 07:35:47;;;;;;;14.68;9.75;;;;;;;25.53;48.83;100539.33;127947;1098;22372;-79
2021/07/19 07:38:17;;;;;;;20.48;7.68;;;;;;;25.36;48.55;100539.50;128081;1096;22372;-77
2021/07/19 07:40:48;;;;;;;8.45;6.33;;;;;;;25.10;48.75;100539.30;127981;1098;22383;-78
2021/07/19 07:43:18;;;;;;;8.58;6.40;;;;;;;24.84;49.11;100537.47;127874;1097;22401;-79
2021/07/19 07:45:49;;;;;;;12.70;8.03;;;;;;;24.56;49.57;100536.70;127960;1098;22407;-77
2021/07/19 07:48:19;;;;;;;11.75;6.38;;;;;;;24.27;50.15;100529.89;127864;1098;22405;-79
2021/07/19 07:50:49;;;;;;;12.50;6.70;;;;;;;24.01;50.70;100528.80;127949;1098;22736;-80
2021/07/19 07:53:18;;;;;;;9.58;6.20;;;;;;;23.83;51.60;100528.06;127891;1098;22376;-81
2021/07/19 07:55:48;;;;;;;14.03;8.05;;;;;;;23.73;52.25;100524.42;128088;1098;22395;-80
2021/07/19 07:58:18;;;;;;;29.90;10.70;;;;;;;23.68;52.93;100511.67;127845;1098;22398;-80
2021/07/19 08:00:52;;;;;;;16.63;8.03;;;;;;;23.62;53.39;100523.42;127971;1098;23301;-80
2021/07/19 08:03:22;;;;;;;11.35;7.65;;;;;;;23.55;53.78;100520.91;127848;1098;24495;-81
2021/07/19 08:05:52;;;;;;;8.60;6.30;;;;;;;23.51;53.96;100514.39;128093;1098;24551;-81
2021/07/19 08:08:21;;;;;;;9.18;5.75;;;;;;;23.48;53.66;100514.89;127889;1098;25053;-80
2021/07/19 08:10:51;;;;;;;13.60;6.30;;;;;;;23.48;53.68;100523.78;127847;1098;22396;-78
2021/07/19 08:13:21;;;;;;;18.55;7.65;;;;;;;23.45;54.11;100518.89;127963;1098;23155;-79
2021/07/19 08:15:51;;;;;;;10.38;5.55;;;;;;;23.42;53.72;100516.69;128284;1098;22481;-80
2021/07/19 08:18:21;;;;;;;9.28;4.85;;;;;;;23.38;53.90;100520.14;127835;1098;24183;-81
2021/07/19 08:20:51;;;;;;;11.43;5.63;;;;;;;23.38;54.09;100520.95;127828;1098;22394;-79
2021/07/19 08:23:21;;;;;;;8.43;4.83;;;;;;;23.34;54.44;100525.22;127836;1098;22484;-79
2021/07/19 08:25:50;;;;;;;7.03;5.10;;;;;;;23.30;54.04;100534.87;127841;1098;22782;-79
2021/07/19 08:28:20;;;;;;;9.08;5.33;;;;;;;23.23;54.58;100523.45;127803;1098;22385;-80
2021/07/19 08:30:50;;;;;;;7.83;5.73;;;;;;;23.19;54.39;100525.83;127812;1098;22408;-79
2021/07/19 08:33:19;;;;;;;9.70;5.83;;;;;;;23.18;55.31;100534.14;127798;1098;22382;-78
2021/07/19 08:35:49;;;;;;;12.70;6.30;;;;;;;23.18;55.17;100534.14;127975;1097;22414;-79
2021/07/19 08:38:19;;;;;;;8.53;5.60;;;;;;;23.27;55.35;100534.55;127815;1098;22394;-79
2021/07/19 08:40:51;;;;;;;8.38;5.00;;;;;;;23.51;55.73;100530.57;127927;1098;22376;-80
2021/07/19 08:43:40;;;;;;;9.60;5.58;;;;;;;23.89;55.84;100529.76;127831;1098;22484;-79
2021/07/19 08:46:12;;;;;;;9.20;6.60;;;;;;;24.48;55.05;100531.75;127841;1098;22412;-78
2021/07/19 08:48:42;;;;;;;31.65;7.18;;;;;;;24.81;52.86;100537.98;127882;1098;22382;-79
2021/07/19 08:51:13;;;;;;;7.85;4.28;;;;;;;24.97;51.73;100526.23;127820;1098;22394;-81
2021/07/19 08:53:44;;;;;;;5.53;3.88;;;;;;;25.03;51.04;100532.49;127974;1098;22398;-80
2021/07/19 08:56:14;;;;;;;;;;;;;;;24.96;49.88;100530.02;127859;1098;22375;-79
2021/07/19 08:58:45;;;;;;;12.00;5.00;;;;;;;24.85;51.28;100531.80;128045;1098;21724;-80
2021/07/19 09:01:16;;;;;;;7.88;4.33;;;;;;;24.96;51.29;100524.61;128016;1098;23387;-80
2021/07/19 09:03:47;;;;;;;9.08;4.30;;;;;;;25.09;50.86;100528.73;127975;1098;22408;-79
2021/07/19 09:06:17;;;;;;;6.68;4.50;;;;;;;25.18;50.04;100527.20;127866;1098;22388;-81
2021/07/19 09:08:52;;;;;;;7.63;4.65;;;;;;;25.31;49.90;100526.75;127907;1098;22369;-80
2021/07/19 09:11:22;;;;;;;10.60;5.33;;;;;;;25.50;49.33;100524.43;128149;1096;22388;-79
2021/07/19 09:13:58;;;;;;;12.30;4.28;;;;;;;25.68;49.07;100527.75;127948;1098;23021;-79
2021/07/19 09:16:56;;;;;;;6.68;4.08;;;;;;;25.78;48.13;100525.90;127838;1098;24249;-80
2021/07/19 09:19:29;;;;;;;8.43;5.35;;;;;;;25.76;48.31;100530.78;127985;1098;22383;-79
2021/07/19 09:22:03;;;;;;;8.60;4.78;;;;;;;25.77;48.15;100523.47;127822;1097;24265;-77
2021/07/19 09:24:32;;;;;;;10.58;4.60;;;;;;;25.78;47.94;100520.48;127920;1098;24514;-79
2021/07/19 09:27:03;;;;;;;6.68;4.50;;;;;;;25.81;47.98;100524.59;127993;1096;22391;-80
2021/07/19 09:29:37;;;;;;;9.08;5.25;;;;;;;25.73;47.14;100523.19;127933;1098;22372;-80
2021/07/19 09:32:07;;;;;;;7.68;4.73;;;;;;;25.68;47.33;100519.64;127971;1098;23150;-80
2021/07/19 09:34:38;;;;;;;8.38;5.00;;;;;;;25.66;47.06;100519.08;127987;1098;22404;-78
2021/07/19 09:37:12;;;;;;;8.73;5.60;;;;;;;25.64;46.86;100521.25;127807;1098;22388;-79
2021/07/19 09:39:49;;;;;;;10.13;4.98;;;;;;;25.58;46.94;100509.58;127954;1098;22388;-78
2021/07/19 09:42:21;;;;;;;13.23;4.45;;;;;;;25.63;47.16;100504.20;127965;1098;22372;-80
2021/07/19 09:44:58;;;;;;;7.70;4.75;;;;;;;25.69;46.87;100505.86;128219;1096;24214;-79
2021/07/19 09:47:36;;;;;;;7.73;4.58;;;;;;;25.54;46.43;100503.89;128143;1098;22379;-78
2021/07/19 09:50:16;;;;;;;7.73;5.13;;;;;;;25.34;47.08;100504.59;128160;1098;24179;-79
2021/07/19 09:52:46;;;;;;;10.03;6.18;;;;;;;25.26;47.47;100507.81;128152;1098;22388;-79
2021/07/19 09:55:26;;;;;;;8.20;5.90;;;;;;;25.22;47.31;100512.09;128062;1098;22377;-79
2021/07/19 09:58:01;;;;;;;10.13;5.65;;;;;;;25.11;47.64;100513.92;128068;1098;22382;-79
2021/07/19 10:00:33;;;;;;;10.60;4.75;;;;;;;25.03;47.50;100508.98;127929;1098;22383;-79
2021/07/19 10:03:15;;;;;;;9.48;5.33;;;;;;;24.87;47.85;100515.34;127970;1098;22394;-81
2021/07/19 10:05:45;;;;;;;6.95;4.23;;;;;;;24.75;47.60;100504.70;127939;1098;22375;-80
2021/07/19 10:08:23;;;;;;;6.85;5.43;;;;;;;24.65;47.77;100502.73;127902;1098;22825;-80
2021/07/19 10:10:53;;;;;;;9.08;6.05;;;;;;;24.60;47.82;100500.00;128002;1098;24272;-79
2021/07/19 10:13:35;;;;;;;9.53;4.73;;;;;;;24.68;48.09;100509.51;127819;1098;22407;-79
2021/07/19 10:16:06;;;;;;;15.78;5.78;;;;;;;24.74;47.61;100502.27;127889;1098;22367;-78
2021/07/19 10:18:39;;;;;;;11.93;4.95;;;;;;;24.72;47.34;100493.59;128029;1098;22389;-79
2021/07/19 10:21:10;;;;;;;6.90;4.55;;;;;;;24.74;47.67;100494.16;127918;1098;22487;-79
2021/07/19 10:23:40;;;;;;;6.65;4.80;;;;;;;24.70;47.41;100488.47;127981;1098;24276;-79
2021/07/19 10:26:11;;;;;;;7.55;4.85;;;;;;;24.65;47.37;100491.92;127837;1098;22385;-78
2021/07/19 10:28:41;;;;;;;;;;;;;;;24.60;47.26;100496.48;127817;1098;23127;-79
2021/07/19 10:31:12;;;;;;;8.88;5.20;;;;;;;24.48;47.66;100493.94;128041;1098;21260;-80
2021/07/19 10:33:42;;;;;;;14.13;5.45;;;;;;;24.40;47.80;100499.79;127919;1098;25133;-78
2021/07/19 10:36:13;;;;;;;7.65;5.03;;;;;;;24.29;47.74;100498.88;128161;1098;24518;-77
2021/07/19 10:38:43;;;;;;;;;;;;;;;24.10;47.74;100503.00;127954;1098;23230;-79
2021/07/19 10:41:13;;;;;;;5.87;4.50;;;;;;;23.96;49.20;100497.19;128053;1098;21276;-80
2021/07/19 10:43:42;;;;;;;12.35;5.50;;;;;;;23.87;48.78;100499.50;127881;1098;24277;-79
2021/07/19 10:46:12;;;;;;;6.98;5.08;;;;;;;23.79;49.47;100499.13;128044;1098;22376;-79
2021/07/19 10:48:44;;;;;;;10.38;6.05;;;;;;;23.70;49.52;100493.37;127881;1098;23674;-78
2021/07/19 10:51:21;;;;;;;14.15;6.25;;;;;;;23.64;50.03;100492.45;128002;1098;22380;-80
2021/07/19 10:53:54;;;;;;;12.17;6.57;;;;;;;23.62;49.63;100493.76;128038;1098;22379;-80
2021/07/19 10:56:28;;;;;;;9.53;5.33;;;;;;;23.61;49.85;100487.55;128092;1098;22394;-80
2021/07/19 10:58:58;;;;;;;7.60;5.80;;;;;;;23.64;49.91;100488.94;127933;1098;22418;-78
2021/07/19 11:01:30;;;;;;;8.35;6.18;;;;;;;23.63;50.58;100487.32;127938;1098;22379;-79
2021/07/19 11:04:15;;;;;;;8.80;6.38;;;;;;;23.65;50.48;100493.27;127842;1098;25140;-78
2021/07/19 11:06:49;;;;;;;8.95;5.98;;;;;;;23.71;50.72;100484.20;127947;1098;22395;-77
2021/07/19 11:09:21;;;;;;;11.68;6.43;;;;;;;23.86;51.06;100486.28;127883;1098;22387;-77
2021/07/19 11:11:50;;;;;;;9.95;6.50;;;;;;;24.04;50.85;100485.92;128108;1098;22394;-76
2021/07/19 11:14:21;;;;;;;13.75;6.63;;;;;;;24.17;50.21;100482.83;128078;1097;22375;-77
2021/07/19 11:16:54;;;;;;;11.90;6.23;;;;;;;24.18;49.79;100480.94;128066;1098;22395;-76
2021/07/19 11:19:36;;;;;;;10.10;6.23;;;;;;;24.21;49.55;100480.43;128045;1098;22376;-80
2021/07/19 11:22:18;;;;;;;10.10;7.33;;;;;;;24.24;49.70;100482.63;128505;1098;22383;-77
2021/07/19 11:24:51;;;;;;;11.75;6.48;;;;;;;24.27;49.71;100474.02;128345;1097;22394;-76
2021/07/19 11:27:49;;;;;;;13.23;7.10;;;;;;;24.35;49.84;100481.64;128067;1098;24518;-77
2021/07/19 11:30:25;;;;;;;11.90;6.20;;;;;;;24.47;49.73;100478.81;128022;1098;22385;-76
2021/07/19 11:32:55;;;;;;;7.85;6.30;;;;;;;24.61;49.32;100471.91;127851;1098;22374;-76
2021/07/19 11:35:25;;;;;;;11.40;6.13;;;;;;;24.67;49.20;100471.97;127811;1098;22379;-80